KHRO

Boone County Airport

Harrison, Arkansas, USA
METAR KHRO 242000Z AUTO 18003KT 1 1/2SM +TSRA BR BKN043 BKN070 OVC095 12/12 A2971 RMK AO2 LTG DSNT ALQDS T01220122 PNO $
Observed Flight Rules
Feb-24 @ 20:00 UTC (14 minutes ago) Instrument Flight Rules
Wind Visibility Clouds Conditions
180° at 3 knots 1 1/2 miles
  • Broken at 4,300' AGL
  • Broken at 7,000' AGL
  • Overcast at 9,500' AGL
  • Heavy Thunderstorm
  • Heavy Rain
  • Mist
Temperatures Readings
Current 12°C / 54°F
Dewpoint 12°C / 54°F
Humidity 100%
Altimeter 29.71" Hg
Pressure 1006 hPa
Elevation 417
METAR KHRO 242000Z AUTO 18003KT 1 1/2SM +TSRA BR BKN043 BKN070 OVC095 12/12 A2971 RMK AO2 LTG DSNT ALQDS T01220122 PNO $
Observed Flight Rules
Feb-24 @ 20:00 UTC
(14 minutes ago)
IFR
Wind Visibility
180° at 3 knots 1 1/2 miles
Clouds
  • Broken at 4,300' AGL
  • Broken at 7,000' AGL
  • Overcast at 9,500' AGL
Conditions
  • Heavy Thunderstorm
  • Heavy Rain
  • Mist
Temperature Dewpoint
12°C / 54°F 12°C / 54°F
Humidity Altimeter Pressure
100% 29.71" Hg 1006 hPa